createdAt,value
2019-01-14T00:00:56.762Z,977.00
2019-01-14T00:01:56.759Z,977.37
2019-01-14T00:02:56.778Z,977.01
2019-01-14T00:03:56.736Z,976.98
2019-01-14T00:04:56.720Z,977.03
2019-01-14T00:05:56.709Z,977.00
2019-01-14T00:06:56.701Z,977.23
2019-01-14T00:07:56.696Z,977.16
2019-01-14T00:08:56.721Z,977.08
2019-01-14T00:09:56.666Z,976.99
2019-01-14T00:10:56.669Z,977.11
2019-01-14T00:11:56.679Z,977.08
2019-01-14T00:12:56.644Z,977.36
2019-01-14T00:13:56.643Z,977.23
2019-01-14T00:14:56.616Z,977.11
2019-01-14T00:15:56.601Z,977.10
2019-01-14T00:16:56.601Z,977.17
2019-01-14T00:17:56.575Z,977.14
2019-01-14T00:18:56.606Z,977.13
2019-01-14T00:19:56.566Z,977.14
2019-01-14T00:20:56.612Z,977.04
2019-01-14T00:21:56.543Z,977.09
2019-01-14T00:22:56.606Z,977.13
2019-01-14T00:23:56.542Z,977.28
2019-01-14T00:24:56.500Z,977.14
2019-01-14T00:25:56.487Z,977.09
2019-01-14T00:26:56.501Z,977.17
2019-01-14T00:27:56.466Z,977.12
2019-01-14T00:28:56.481Z,977.22
2019-01-14T00:29:56.461Z,977.27
2019-01-14T00:30:56.436Z,977.29
2019-01-14T00:31:56.421Z,977.25
2019-01-14T00:32:56.425Z,977.30
2019-01-14T00:33:56.440Z,977.30
2019-01-14T00:34:56.407Z,977.43
2019-01-14T00:35:56.381Z,977.36
2019-01-14T00:36:56.369Z,977.32
2019-01-14T00:37:56.352Z,977.33
2019-01-14T00:38:56.363Z,977.28
2019-01-14T00:39:56.381Z,977.29
2019-01-14T00:40:56.328Z,977.34
2019-01-14T00:41:56.322Z,977.32
2019-01-14T00:42:56.323Z,977.33
2019-01-14T00:43:56.319Z,977.38
2019-01-14T00:44:56.316Z,977.42
2019-01-14T00:45:56.306Z,977.42
2019-01-14T00:46:56.254Z,977.40
2019-01-14T00:47:56.251Z,977.43
2019-01-14T00:48:56.262Z,977.37
2019-01-14T00:49:56.243Z,977.42
2019-01-14T00:50:56.247Z,977.35
2019-01-14T00:51:56.200Z,977.32
2019-01-14T00:52:56.185Z,977.37
2019-01-14T00:53:56.192Z,977.37
2019-01-14T00:54:56.195Z,977.38
2019-01-14T00:55:56.164Z,977.35
2019-01-14T00:56:56.164Z,977.28
2019-01-14T00:57:56.135Z,977.44
2019-01-14T00:58:56.140Z,977.44
2019-01-14T00:59:56.131Z,977.41
2019-01-14T01:00:56.098Z,977.59
2019-01-14T01:01:56.094Z,977.51
2019-01-14T01:02:56.103Z,977.53
2019-01-14T01:03:56.070Z,977.58
2019-01-14T01:04:56.091Z,977.63
2019-01-14T01:05:56.058Z,977.67
2019-01-14T01:06:56.059Z,977.71
2019-01-14T01:07:56.020Z,977.69
2019-01-14T01:08:56.012Z,977.64
2019-01-14T01:09:56.021Z,977.63
2019-01-14T01:10:56.023Z,977.73
2019-01-14T01:11:55.982Z,977.78
2019-01-14T01:12:55.964Z,977.67
2019-01-14T01:13:55.962Z,977.76
2019-01-14T01:14:55.958Z,977.71
2019-01-14T01:15:55.978Z,977.75
2019-01-14T01:16:55.929Z,977.78
2019-01-14T01:17:55.918Z,977.88
2019-01-14T01:18:55.902Z,977.82
2019-01-14T01:19:55.893Z,977.83
2019-01-14T01:20:55.909Z,977.88
2019-01-14T01:21:55.878Z,977.85
2019-01-14T01:22:55.861Z,977.87
2019-01-14T01:23:55.886Z,978.00
2019-01-14T01:24:55.833Z,977.97
2019-01-14T01:25:55.875Z,977.87
2019-01-14T01:26:55.832Z,977.94
2019-01-14T01:27:55.833Z,978.01
2019-01-14T01:28:55.789Z,977.95
2019-01-14T01:29:55.805Z,978.00
2019-01-14T01:30:55.822Z,978.04
2019-01-14T01:31:55.757Z,977.98
2019-01-14T01:32:55.747Z,978.03
2019-01-14T01:33:55.738Z,978.00
2019-01-14T01:34:55.728Z,977.91
2019-01-14T01:35:55.765Z,978.05
2019-01-14T01:36:55.715Z,978.07
2019-01-14T01:37:55.695Z,978.05
2019-01-14T01:38:55.688Z,978.07
2019-01-14T01:39:55.683Z,978.04
2019-01-14T01:40:55.686Z,978.01
2019-01-14T01:41:55.694Z,978.11
2019-01-14T01:42:55.670Z,978.09
2019-01-14T01:43:55.629Z,978.13
2019-01-14T01:44:55.619Z,978.15
2019-01-14T01:45:55.620Z,978.26
2019-01-14T01:46:55.636Z,978.23
2019-01-14T01:47:55.623Z,978.27
2019-01-14T01:48:55.571Z,978.14
2019-01-14T01:49:55.564Z,978.30
2019-01-14T01:50:55.602Z,978.25
2019-01-14T01:51:55.564Z,978.29
2019-01-14T01:52:55.523Z,978.32
2019-01-14T01:53:55.516Z,978.27
2019-01-14T01:54:55.529Z,978.38
2019-01-14T01:55:55.490Z,978.41
2019-01-14T01:56:55.502Z,978.46
2019-01-14T01:57:55.471Z,978.41
2019-01-14T01:58:55.459Z,978.63
2019-01-14T01:59:55.465Z,978.52
2019-01-14T02:00:55.484Z,978.43
2019-01-14T02:01:55.468Z,978.51
2019-01-14T02:02:55.412Z,978.38
2019-01-14T02:03:55.401Z,978.37
2019-01-14T02:04:55.394Z,978.43
2019-01-14T02:05:55.378Z,978.58
2019-01-14T02:06:55.368Z,978.46
2019-01-14T02:07:55.380Z,978.51
2019-01-14T02:08:55.401Z,978.47
2019-01-14T02:09:55.337Z,978.52
2019-01-14T02:10:55.334Z,978.51
2019-01-14T02:11:55.318Z,978.58
2019-01-14T02:12:55.326Z,978.52
2019-01-14T02:13:55.296Z,978.51
2019-01-14T02:14:55.281Z,978.49
2019-01-14T02:15:55.314Z,978.51
2019-01-14T02:16:55.259Z,978.42
2019-01-14T02:17:55.269Z,978.58
2019-01-14T02:18:55.235Z,978.63
2019-01-14T02:19:55.228Z,978.58
2019-01-14T02:20:55.220Z,978.64
2019-01-14T02:21:55.201Z,978.61
2019-01-14T02:22:56.246Z,978.71
2019-01-14T02:23:55.179Z,978.54
2019-01-14T02:24:55.169Z,978.51
2019-01-14T02:25:55.156Z,978.57
2019-01-14T02:26:55.144Z,978.56
2019-01-14T02:27:55.215Z,978.51
2019-01-14T02:28:55.122Z,978.52
2019-01-14T02:29:55.111Z,978.47
2019-01-14T02:30:55.103Z,978.44
2019-01-14T02:31:55.100Z,978.46
2019-01-14T02:32:55.101Z,978.48
2019-01-14T02:33:55.073Z,978.53
2019-01-14T02:34:55.062Z,978.52
2019-01-14T02:35:55.055Z,978.60
2019-01-14T02:36:55.035Z,978.51
2019-01-14T02:37:55.049Z,978.54
2019-01-14T02:38:55.013Z,978.52
2019-01-14T02:39:55.031Z,978.60
2019-01-14T02:40:54.987Z,978.51
2019-01-14T02:41:54.977Z,978.36
2019-01-14T02:42:54.965Z,978.49
2019-01-14T02:43:54.978Z,978.63
2019-01-14T02:44:54.953Z,978.72
2019-01-14T02:45:54.932Z,978.77
2019-01-14T02:46:54.921Z,978.72
2019-01-14T02:47:54.912Z,978.64
2019-01-14T02:48:54.924Z,978.64
2019-01-14T02:49:54.890Z,978.70
2019-01-14T02:50:54.890Z,978.65
2019-01-14T02:51:54.865Z,978.84
2019-01-14T02:52:54.855Z,978.79
2019-01-14T02:53:54.868Z,978.73
2019-01-14T02:54:54.835Z,978.76
2019-01-14T02:55:54.872Z,978.79
2019-01-14T02:56:54.815Z,978.78
2019-01-14T02:57:54.800Z,978.79
2019-01-14T02:58:54.859Z,978.79
2019-01-14T02:59:56.078Z,978.81
2019-01-14T03:00:54.771Z,978.82
2019-01-14T03:01:54.785Z,978.81
2019-01-14T03:02:54.762Z,978.90
2019-01-14T03:03:54.785Z,978.84
2019-01-14T03:04:54.733Z,978.85
2019-01-14T03:05:54.735Z,978.85
2019-01-14T03:06:57.962Z,979.05
2019-01-14T03:07:54.693Z,978.88
2019-01-14T03:08:54.684Z,978.92
2019-01-14T03:09:54.695Z,978.94
2019-01-14T03:10:54.693Z,978.99
2019-01-14T03:11:54.649Z,978.96
2019-01-14T03:12:54.635Z,978.96
2019-01-14T03:13:54.627Z,978.95
2019-01-14T03:14:54.643Z,979.03
2019-01-14T03:15:54.604Z,979.03
2019-01-14T03:16:54.635Z,978.98
2019-01-14T03:17:54.593Z,979.00
2019-01-14T03:18:54.592Z,978.99
2019-01-14T03:19:54.592Z,979.01
2019-01-14T03:20:54.551Z,979.01
2019-01-14T03:21:54.536Z,979.16
2019-01-14T03:22:54.525Z,979.04
2019-01-14T03:23:54.515Z,979.05
2019-01-14T03:24:54.546Z,979.04
2019-01-14T03:25:58.296Z,979.01
2019-01-14T03:26:54.481Z,979.05
2019-01-14T03:27:54.470Z,979.23
2019-01-14T03:28:54.460Z,979.32
2019-01-14T03:29:54.490Z,979.29
2019-01-14T03:30:54.442Z,979.07
2019-01-14T03:31:54.447Z,979.10
2019-01-14T03:32:54.500Z,979.22
2019-01-14T03:33:54.406Z,979.18
2019-01-14T03:34:54.396Z,979.18
2019-01-14T03:35:54.408Z,979.18
2019-01-14T03:36:54.371Z,979.18
2019-01-14T03:37:54.362Z,979.18
2019-01-14T03:38:54.384Z,979.27
2019-01-14T03:39:54.341Z,979.20
2019-01-14T03:40:54.355Z,979.14
2019-01-14T03:41:54.341Z,979.12
2019-01-14T03:42:54.339Z,979.16
2019-01-14T03:43:54.303Z,979.20
2019-01-14T03:44:54.306Z,979.23
2019-01-14T03:45:54.323Z,979.18
2019-01-14T03:46:54.266Z,979.15
2019-01-14T03:47:54.294Z,979.14
2019-01-14T03:48:54.246Z,979.15
2019-01-14T03:49:54.231Z,979.21
2019-01-14T03:50:54.241Z,979.11
2019-01-14T03:51:54.212Z,979.23
2019-01-14T03:52:54.197Z,979.14
2019-01-14T03:53:54.184Z,979.18
2019-01-14T03:54:54.217Z,979.20
2019-01-14T03:55:54.187Z,979.22
2019-01-14T03:56:54.153Z,979.23
2019-01-14T03:57:54.146Z,979.20
2019-01-14T03:58:54.129Z,979.16
2019-01-14T03:59:54.119Z,979.18
2019-01-14T04:00:54.135Z,979.24
2019-01-14T04:01:54.097Z,979.24
2019-01-14T04:02:54.124Z,979.30
2019-01-14T04:03:54.077Z,979.09
2019-01-14T04:04:54.063Z,979.22
2019-01-14T04:05:54.083Z,979.13
2019-01-14T04:06:54.043Z,979.19
2019-01-14T04:07:54.042Z,979.20
2019-01-14T04:08:54.019Z,979.29
2019-01-14T04:09:54.030Z,979.16
2019-01-14T04:10:53.997Z,979.29
2019-01-14T04:11:54.014Z,979.31
2019-01-14T04:12:53.975Z,979.35
2019-01-14T04:13:53.963Z,979.37
2019-01-14T04:14:53.951Z,979.36
2019-01-14T04:15:53.979Z,979.32
2019-01-14T04:16:53.999Z,979.40
2019-01-14T04:17:53.923Z,979.52
2019-01-14T04:18:53.908Z,979.40
2019-01-14T04:19:53.897Z,979.46
2019-01-14T04:20:53.888Z,979.49
2019-01-14T04:21:53.907Z,979.31
2019-01-14T04:22:53.869Z,979.43
2019-01-14T04:23:53.855Z,979.51
2019-01-14T04:24:53.848Z,979.68
2019-01-14T04:25:53.835Z,979.57
2019-01-14T04:26:53.842Z,979.54
2019-01-14T04:27:53.822Z,979.58
2019-01-14T04:28:53.798Z,979.60
2019-01-14T04:29:53.791Z,979.56
2019-01-14T04:30:53.776Z,979.61
2019-01-14T04:31:53.914Z,979.67
2019-01-14T04:32:53.758Z,979.67
2019-01-14T04:33:53.747Z,979.75
2019-01-14T04:34:53.738Z,979.71
2019-01-14T04:35:53.721Z,979.60
2019-01-14T04:36:53.711Z,979.58
2019-01-14T04:37:53.722Z,979.61
2019-01-14T04:38:53.687Z,979.66
2019-01-14T04:39:53.674Z,979.68
2019-01-14T04:40:53.668Z,979.66
2019-01-14T04:41:53.655Z,979.63
2019-01-14T04:42:53.664Z,979.71
2019-01-14T04:43:53.628Z,979.65
2019-01-14T04:44:53.620Z,979.69
2019-01-14T04:45:53.606Z,979.65
2019-01-14T04:46:53.604Z,979.72
2019-01-14T04:47:53.624Z,979.71
2019-01-14T04:48:53.587Z,979.66
2019-01-14T04:49:53.575Z,979.71
2019-01-14T04:50:53.553Z,979.70
2019-01-14T04:51:53.592Z,979.69
2019-01-14T04:52:53.556Z,979.68
2019-01-14T04:53:53.520Z,979.73
2019-01-14T04:54:53.508Z,979.81
2019-01-14T04:55:53.500Z,979.75
2019-01-14T04:56:53.498Z,979.70
2019-01-14T04:57:53.499Z,979.72
2019-01-14T04:58:53.465Z,979.79
2019-01-14T04:59:53.453Z,979.82
2019-01-14T05:00:53.454Z,979.78
2019-01-14T05:01:53.430Z,979.84
2019-01-14T05:02:53.452Z,979.77
2019-01-14T05:03:53.420Z,979.85
2019-01-14T05:04:53.422Z,979.77
2019-01-14T05:05:53.398Z,979.85
2019-01-14T05:06:53.376Z,979.94
2019-01-14T05:07:53.399Z,979.94
2019-01-14T05:08:53.363Z,979.91
2019-01-14T05:09:53.344Z,979.91
2019-01-14T05:10:53.333Z,979.93
2019-01-14T05:11:53.335Z,979.97
2019-01-14T05:12:53.322Z,979.99
2019-01-14T05:13:53.325Z,979.88
2019-01-14T05:14:53.289Z,979.93
2019-01-14T05:15:53.280Z,979.95
2019-01-14T05:16:53.267Z,979.99
2019-01-14T05:17:53.259Z,980.10
2019-01-14T05:18:53.276Z,980.06
2019-01-14T05:19:53.240Z,980.11
2019-01-14T05:20:53.221Z,980.07
2019-01-14T05:21:53.209Z,980.15
2019-01-14T05:22:53.204Z,980.07
2019-01-14T05:23:53.212Z,980.17
2019-01-14T05:24:53.180Z,980.14
2019-01-14T05:25:53.179Z,980.16
2019-01-14T05:26:53.156Z,980.16
2019-01-14T05:27:53.149Z,980.22
2019-01-14T05:28:53.159Z,980.15
2019-01-14T05:29:53.124Z,980.28
2019-01-14T05:30:53.111Z,980.20
2019-01-14T05:31:53.109Z,980.27
2019-01-14T05:32:53.093Z,980.15
2019-01-14T05:33:53.115Z,980.17
2019-01-14T05:34:53.069Z,980.23
2019-01-14T05:35:53.058Z,980.21
2019-01-14T05:36:53.046Z,980.17
2019-01-14T05:37:53.038Z,980.24
2019-01-14T05:38:53.036Z,980.25
2019-01-14T05:39:53.047Z,980.21
2019-01-14T05:40:53.016Z,980.30
2019-01-14T05:41:53.006Z,980.28
2019-01-14T05:42:52.979Z,980.46
2019-01-14T05:43:52.973Z,980.28
2019-01-14T05:44:52.983Z,980.46
2019-01-14T05:45:52.951Z,980.45
2019-01-14T05:46:52.939Z,980.47
2019-01-14T05:47:52.940Z,980.45
2019-01-14T05:48:52.915Z,980.51
2019-01-14T05:49:52.928Z,980.59
2019-01-14T05:50:52.893Z,980.51
2019-01-14T05:51:52.881Z,980.52
2019-01-14T05:52:52.872Z,980.48
2019-01-14T05:53:52.882Z,980.55
2019-01-14T05:54:52.873Z,980.65
2019-01-14T05:55:52.839Z,980.50
2019-01-14T05:56:52.825Z,980.56
2019-01-14T05:57:52.815Z,980.50
2019-01-14T05:58:52.805Z,980.60
2019-01-14T05:59:53.002Z,980.66
2019-01-14T06:00:52.782Z,980.57
2019-01-14T06:01:52.771Z,980.63
2019-01-14T06:02:52.766Z,980.61
2019-01-14T06:03:52.751Z,980.77
2019-01-14T06:04:52.741Z,980.74
2019-01-14T06:05:52.764Z,980.74
2019-01-14T06:06:52.716Z,980.68
2019-01-14T06:07:52.703Z,980.77
2019-01-14T06:08:52.695Z,980.80
2019-01-14T06:09:52.681Z,980.73
2019-01-14T06:10:52.697Z,980.75
2019-01-14T06:11:52.666Z,980.76
2019-01-14T06:12:52.652Z,980.78
2019-01-14T06:13:52.646Z,980.83
2019-01-14T06:14:52.628Z,980.75
2019-01-14T06:15:52.641Z,980.82
2019-01-14T06:16:52.605Z,980.81
2019-01-14T06:17:52.593Z,980.88
2019-01-14T06:18:52.589Z,980.87
2019-01-14T06:19:52.578Z,980.86
2019-01-14T06:20:52.596Z,980.87
2019-01-14T06:21:52.559Z,980.89
2019-01-14T06:22:52.539Z,980.91
2019-01-14T06:23:52.530Z,980.95
2019-01-14T06:24:52.517Z,980.97
2019-01-14T06:25:52.530Z,981.02
2019-01-14T06:26:52.496Z,981.11
2019-01-14T06:27:52.513Z,981.10
2019-01-14T06:28:52.473Z,981.12
2019-01-14T06:29:52.478Z,981.10
2019-01-14T06:30:52.473Z,981.10
2019-01-14T06:31:52.437Z,981.11
2019-01-14T06:32:52.430Z,981.12
2019-01-14T06:33:52.425Z,981.18
2019-01-14T06:34:52.405Z,981.04
2019-01-14T06:35:52.421Z,981.08
2019-01-14T06:36:52.685Z,981.19
2019-01-14T06:37:52.772Z,981.09
2019-01-14T06:38:52.360Z,981.13
2019-01-14T06:39:52.355Z,981.20
2019-01-14T06:40:52.378Z,981.12
2019-01-14T06:41:52.329Z,981.13
2019-01-14T06:42:52.328Z,981.11
2019-01-14T06:43:52.305Z,981.09
2019-01-14T06:44:52.320Z,981.10
2019-01-14T06:45:52.314Z,981.15
2019-01-14T06:46:52.298Z,981.07
2019-01-14T06:47:52.315Z,981.12
2019-01-14T06:48:52.252Z,981.16
2019-01-14T06:49:52.243Z,981.28
2019-01-14T06:50:52.227Z,981.22
2019-01-14T06:51:52.241Z,981.28
2019-01-14T06:52:52.243Z,981.24
2019-01-14T06:53:52.196Z,981.25
2019-01-14T06:54:52.186Z,981.37
2019-01-14T06:55:52.175Z,981.35
2019-01-14T06:56:52.188Z,981.44
2019-01-14T06:57:52.155Z,981.42
2019-01-14T06:58:52.169Z,981.39
2019-01-14T06:59:52.129Z,981.42
2019-01-14T07:00:52.121Z,981.46
2019-01-14T07:01:52.148Z,981.50
2019-01-14T07:02:52.110Z,981.52
2019-01-14T07:03:52.087Z,981.57
2019-01-14T07:04:52.104Z,981.56
2019-01-14T07:05:52.071Z,981.59
2019-01-14T07:06:52.081Z,981.55
2019-01-14T07:07:59.242Z,981.58
2019-01-14T07:08:53.031Z,981.56
2019-01-14T07:09:52.025Z,981.51
2019-01-14T07:10:52.009Z,981.52
2019-01-14T07:11:52.114Z,981.54
2019-01-14T07:12:52.048Z,981.57
2019-01-14T07:13:51.982Z,981.62
2019-01-14T07:14:51.967Z,981.71
2019-01-14T07:15:51.955Z,981.68
2019-01-14T07:16:51.968Z,981.83
2019-01-14T07:17:51.934Z,981.68
2019-01-14T07:18:51.937Z,981.75
2019-01-14T07:19:51.917Z,981.74
2019-01-14T07:20:51.901Z,981.80
2019-01-14T07:21:51.917Z,981.79
2019-01-14T07:22:51.877Z,981.81
2019-01-14T07:23:51.881Z,981.87
2019-01-14T07:24:51.860Z,981.92
2019-01-14T07:25:51.866Z,981.89
2019-01-14T07:26:51.856Z,981.89
2019-01-14T07:27:51.845Z,981.87
2019-01-14T07:28:51.825Z,981.93
2019-01-14T07:29:51.802Z,981.98
2019-01-14T07:30:51.796Z,982.06
2019-01-14T07:31:51.812Z,982.00
2019-01-14T07:32:51.767Z,982.00
2019-01-14T07:33:51.758Z,982.06
2019-01-14T07:34:51.745Z,982.09
2019-01-14T07:35:51.734Z,982.18
2019-01-14T07:36:51.722Z,982.16
2019-01-14T07:37:51.763Z,982.18
2019-01-14T07:38:51.700Z,982.28
2019-01-14T07:39:51.692Z,982.27
2019-01-14T07:40:51.678Z,982.24
2019-01-14T07:41:51.668Z,982.24
2019-01-14T07:42:51.680Z,982.22
2019-01-14T07:43:51.649Z,982.24
2019-01-14T07:44:51.638Z,982.22
2019-01-14T07:45:51.936Z,982.22
2019-01-14T07:46:51.611Z,982.19
2019-01-14T07:47:51.623Z,982.24
2019-01-14T07:48:51.589Z,982.30
2019-01-14T07:49:51.579Z,982.37
2019-01-14T07:50:51.575Z,982.42
2019-01-14T07:51:51.565Z,982.40
2019-01-14T07:52:51.572Z,982.41
2019-01-14T07:53:51.536Z,982.47
2019-01-14T07:54:51.523Z,982.50
2019-01-14T07:55:51.511Z,982.56
2019-01-14T07:56:51.502Z,982.57
2019-01-14T07:57:51.519Z,982.64
2019-01-14T07:58:51.515Z,982.68
2019-01-14T07:59:51.467Z,982.60
2019-01-14T08:00:51.458Z,982.72
2019-01-14T08:01:51.446Z,982.71
2019-01-14T08:02:51.460Z,982.65
2019-01-14T08:03:51.423Z,982.76
2019-01-14T08:04:51.417Z,982.79
2019-01-14T08:05:51.404Z,982.77
2019-01-14T08:06:51.417Z,982.79
2019-01-14T08:07:51.434Z,982.87
2019-01-14T08:08:51.374Z,982.98
2019-01-14T08:09:51.361Z,983.03
2019-01-14T08:10:51.368Z,983.08
2019-01-14T08:11:51.352Z,983.04
2019-01-14T08:12:51.353Z,983.04
2019-01-14T08:13:51.318Z,983.05
2019-01-14T08:14:51.305Z,983.10
2019-01-14T08:15:51.292Z,983.04
2019-01-14T08:16:51.301Z,983.01
2019-01-14T08:17:51.354Z,983.02
2019-01-14T08:18:51.260Z,983.02
2019-01-14T08:19:51.251Z,983.01
2019-01-14T08:20:51.241Z,983.06
2019-01-14T08:21:51.228Z,983.06
2019-01-14T08:22:51.241Z,983.15
2019-01-14T08:23:51.207Z,983.15
2019-01-14T08:24:51.209Z,983.12
2019-01-14T08:25:51.183Z,983.21
2019-01-14T08:26:51.176Z,983.28
2019-01-14T08:27:51.194Z,983.22
2019-01-14T08:28:51.148Z,983.24
2019-01-14T08:29:51.144Z,983.32
2019-01-14T08:30:51.135Z,983.36
2019-01-14T08:31:51.123Z,983.40
2019-01-14T08:32:51.147Z,983.48
2019-01-14T08:33:51.098Z,983.39
2019-01-14T08:34:51.083Z,983.45
2019-01-14T08:35:51.081Z,983.47
2019-01-14T08:36:51.065Z,983.44
2019-01-14T08:37:51.053Z,983.47
2019-01-14T08:38:51.098Z,983.52
2019-01-14T08:39:51.028Z,983.52
2019-01-14T08:40:51.020Z,983.43
2019-01-14T08:41:51.009Z,983.50
2019-01-14T08:42:51.005Z,983.56
2019-01-14T08:43:51.011Z,983.56
2019-01-14T08:44:50.991Z,983.60
2019-01-14T08:45:50.967Z,983.60
2019-01-14T08:46:50.955Z,983.59
2019-01-14T08:47:50.965Z,983.60
2019-01-14T08:48:51.296Z,983.54
2019-01-14T08:49:50.931Z,983.57
2019-01-14T08:50:50.922Z,983.60
2019-01-14T08:51:50.929Z,983.55
2019-01-14T08:52:50.908Z,983.57
2019-01-14T08:53:50.926Z,983.60
2019-01-14T08:54:50.868Z,983.61
2019-01-14T08:55:50.865Z,983.64
2019-01-14T08:56:50.858Z,983.60
2019-01-14T08:57:54.679Z,983.63
2019-01-14T08:58:50.874Z,983.64
2019-01-14T08:59:50.814Z,983.68
2019-01-14T09:00:50.817Z,983.71
2019-01-14T09:01:50.798Z,983.74
2019-01-14T09:02:50.782Z,983.78
2019-01-14T09:03:50.830Z,983.81
2019-01-14T09:04:50.754Z,983.81
2019-01-14T09:05:50.745Z,983.83
2019-01-14T09:06:50.752Z,983.89
2019-01-14T09:07:50.731Z,983.91
2019-01-14T09:08:50.768Z,983.97
2019-01-14T09:09:51.623Z,984.04
2019-01-14T09:10:50.741Z,984.09
2019-01-14T09:11:50.693Z,984.06
2019-01-14T09:12:50.673Z,984.04
2019-01-14T09:13:50.717Z,984.10
2019-01-14T09:14:50.656Z,984.01
2019-01-14T09:15:50.650Z,984.07
2019-01-14T09:16:50.637Z,984.07
2019-01-14T09:17:50.625Z,984.08
2019-01-14T09:18:50.623Z,984.05
2019-01-14T09:19:50.602Z,984.02
2019-01-14T09:20:50.585Z,984.08
2019-01-14T09:21:50.569Z,984.06
2019-01-14T09:22:50.597Z,984.13
2019-01-14T09:23:50.584Z,984.10
2019-01-14T09:24:50.537Z,984.15
2019-01-14T09:25:53.919Z,984.12
2019-01-14T09:26:50.510Z,984.12
2019-01-14T09:27:50.527Z,984.14
2019-01-14T09:28:50.492Z,984.12
2019-01-14T09:29:50.503Z,984.10
2019-01-14T09:30:50.522Z,984.16
2019-01-14T09:31:50.455Z,984.17
2019-01-14T09:32:50.447Z,984.18
2019-01-14T09:33:50.439Z,984.25
2019-01-14T09:34:50.447Z,984.22
2019-01-14T09:35:50.414Z,984.27
2019-01-14T09:36:50.402Z,984.28
2019-01-14T09:37:50.411Z,984.24
2019-01-14T09:38:50.381Z,984.19
2019-01-14T09:39:50.483Z,984.28
2019-01-14T09:40:50.357Z,984.24
2019-01-14T09:41:50.345Z,984.24
2019-01-14T09:42:50.335Z,984.27
2019-01-14T09:43:50.324Z,984.28
2019-01-14T09:44:50.340Z,984.26
2019-01-14T09:45:50.328Z,984.28
2019-01-14T09:46:50.290Z,984.31
2019-01-14T09:47:50.280Z,984.24
2019-01-14T09:48:50.267Z,984.20
2019-01-14T09:49:50.279Z,984.24
2019-01-14T09:50:50.266Z,984.27
2019-01-14T09:51:50.234Z,984.25
2019-01-14T09:52:50.226Z,984.23
2019-01-14T09:53:50.213Z,984.25
2019-01-14T09:54:50.226Z,984.31
2019-01-14T09:55:50.189Z,984.32
2019-01-14T09:56:50.190Z,984.32
2019-01-14T09:57:50.184Z,984.28
2019-01-14T09:58:50.166Z,984.28
2019-01-14T09:59:50.172Z,984.34
2019-01-14T10:00:50.140Z,984.28
2019-01-14T10:01:50.125Z,984.21
2019-01-14T10:02:50.153Z,984.30
2019-01-14T10:03:50.110Z,984.34
2019-01-14T10:04:50.139Z,984.30
2019-01-14T10:05:50.085Z,984.31
2019-01-14T10:06:50.110Z,984.37
2019-01-14T10:07:50.058Z,984.39
2019-01-14T10:08:50.068Z,984.38
2019-01-14T10:09:50.059Z,984.43
2019-01-14T10:10:50.046Z,984.43
2019-01-14T10:11:50.028Z,984.46
2019-01-14T10:12:50.007Z,984.48
2019-01-14T10:13:49.993Z,984.49
2019-01-14T10:14:50.019Z,984.49
2019-01-14T10:15:49.976Z,984.56
2019-01-14T10:16:49.958Z,984.55
2019-01-14T10:17:49.954Z,984.56
2019-01-14T10:18:49.937Z,984.60
2019-01-14T10:19:49.966Z,984.61
2019-01-14T10:20:49.915Z,984.68
2019-01-14T10:21:49.907Z,984.64
2019-01-14T10:22:49.903Z,984.67
2019-01-14T10:23:49.899Z,984.66
2019-01-14T10:24:49.870Z,984.68
2019-01-14T10:25:49.882Z,984.66
2019-01-14T10:26:49.848Z,984.74
2019-01-14T10:27:49.838Z,984.68
2019-01-14T10:28:49.827Z,984.72
2019-01-14T10:29:49.815Z,984.78
2019-01-14T10:30:49.849Z,984.74
2019-01-14T10:31:49.794Z,984.79
2019-01-14T10:32:49.783Z,984.75
2019-01-14T10:33:49.777Z,984.86
2019-01-14T10:34:49.760Z,984.77
2019-01-14T10:35:49.775Z,984.74
2019-01-14T10:36:49.738Z,984.80
2019-01-14T10:37:49.736Z,984.81
2019-01-14T10:38:50.402Z,984.82
2019-01-14T10:39:49.707Z,984.89
2019-01-14T10:40:49.808Z,984.88
2019-01-14T10:41:49.694Z,984.87
2019-01-14T10:42:49.900Z,984.99
2019-01-14T10:43:49.864Z,984.93
2019-01-14T10:44:49.768Z,984.93
2019-01-14T10:45:49.678Z,984.96
